logo
Rechercher aéroport 
image banner adimage banner adimage banner ad
image banner ad

ED0182 - Bueckeburg-Weinberg

Situé à , Germany

ICAO - , IATA -

Données fournies par Airmate  

Information générale

Coordonnées: N52°15'10" E9°1'11"
Élévation : 262 feet MSL.
Variation magnétique : 3.0000° East
Voir autres Aéroports à North Rhine-Westphalia

Données opérationnelles

Special qualification required
Heure actuelle UTC:
Heure actuelle locale:
Météo à : ETHB - Bueckeburg ( 5 km )
TAF: TAF ETHB 251310Z 2514/2523 25005KT 9999 NSW FEW030 BKN120 BECMG 2517/2519 17005KT 9999 NSW BKN070
Voir NOTAMs / SUP AIP / TFR affectant cet aéroport [VIEW]
Fréquences de communication: [VIEW]

Pistes:

Identifiant RWYQFULongueur (ft)Largeur (ft)SurfaceLDA (ft)
11110°164098GRASS
29290°164098GRASS

Coordonnées de l'aéroport

Adresse: Germany

Vue satellite de ED0182